SLVRSLCB

Guest
Details From SLVR - VIRU VIRU INTL
To SLCB - JORGE WILSTERMAN
Flight Number -
Tags decoded
Created
Modified
Stats Distance 176 nm / 326 km
Max Altitude 0 ft / 0 m
Waypoints 5
Social Downloads 6
Likes 0
Share VATSIM

Download

Looking for another format? Having issues loading an existing format? Contact us
Advertisement - Login to hide

Notes

Requested: SLVR VIR MATEO CBA SLCB

Route

SLVR VIR MATEO CBA SLCB

ID Type Via Altitude (ft/m) Position (lat/lon) Dist (leg/tot) Name
O SLVR APT - 0 / 0 -17.64476 / -63.13536 - / 0 nm VIRU VIRU INTL
VIR VOR - 0 / 0 -17.62848 / -63.14990 1 / 1 nm VIRU VIRU VOR-DME
MATEO FIX - 0 / 0 -17.43214 / -64.53313 80 / 81 nm
CBA VOR - 0 / 0 -17.42126 / -66.17904 94 / 175 nm COCHABAMBA VOR-DME
O SLCB APT - 0 / 0 -17.42039 / -66.17717 0 / 175 nm JORGE WILSTERMAN

Altitude Profile

Advertisement - Login to hide

Weather


0- 5 10 15 20 25 30 35+ Temperature / °C

Clouds and Precipitation
Forecast for 2018-10-22 06:00 UTC. Updated 5 hours ago

Ground ~20,000 ft ~40,000 ft Winds

SLVR

Details ICAO SLVR (VVI)
Name Viru Viru Int'l
Region Bolivia
Timezone America/La_Paz (UTC-4.0)
Stats Elevation 1,225 ft / 373 m (AMSL)
Location -17.644800° -63.135400°
Runways 1
Magnetic Variation 12.056° W

METAR

SLVR 220800Z 34004KT 9999 FEW012 SCT023 BKN070 24/23 Q1009

Decode

TAF

Not found

Departure Runways

ID Width Length Bearing (true/mag) Surface Threshold Overrun Markings Lighting
16 148 ft / 45 m 11,494 ft / 3,503 m 147.34° / 159.39° CONCRETE 0 ft / 0 m 0 ft / 0 m PREC-APP CENTERLINE EDGE THRESHOLD CALVERT
34 148 ft / 45 m 11,494 ft / 3,503 m 327.33° / 339.39° CONCRETE 0 ft / 0 m 0 ft / 0 m PREC-APP CENTERLINE EDGE THRESHOLD ALSF-I

SLCB

Details ICAO SLCB (CBB)
Name JORGE WILSTERMAN
Region Bolivia
Timezone America/La_Paz (UTC-4.0)
Stats Elevation 8,359 ft / 2,548 m (AMSL)
Location -17.420400° -66.177200°
Runways 2
Magnetic Variation 9.563° W

METAR

SLCB 220800Z 29003KT 9999 FEW030 BKN080 16/08 Q1021

Decode

TAF

Not found

Destination Runways

ID Width Length Bearing (true/mag) Surface Threshold Overrun Markings Lighting
04 148 ft / 45 m 8,718 ft / 2,657 m 37.26° / 46.83° ASPHALT 0 ft / 0 m 0 ft / 0 m PREC-APP EDGE THRESHOLD
14 148 ft / 45 m 12,485 ft / 3,805 m 132.10° / 141.67° ASPHALT 335 ft / 102 m 200 ft / 61 m PREC-APP EDGE THRESHOLD
22 148 ft / 45 m 8,718 ft / 2,657 m 217.26° / 226.82° ASPHALT 732 ft / 223 m 0 ft / 0 m PREC-APP EDGE THRESHOLD
32 148 ft / 45 m 12,485 ft / 3,805 m 312.10° / 321.66° ASPHALT 984 ft / 300 m 200 ft / 61 m PREC-APP EDGE THRESHOLD ALSF-I

Approach Navaids

Runway Type Ident Frequency Range Bearing (true/mag) Slope Elevation
32 GS ILCO 110.50 MHz 10 nm / 19 km 312.20° / 321.76 ° 3.30° 8,360 ft / 2,548 m (AMSL)
32 DME ILCO 110.50 MHz 18 nm / 33 km - - 8,360 ft / 2,548 m (AMSL)
32 LOC-ILS ILCO 110.50 MHz 18 nm / 33 km 311.99° / 321.55 ° - 8,360 ft / 2,548 m (AMSL)

Popular Alternatives